sensor_id;sensor_type;location;lat;lon;timestamp;P1;durP1;ratioP1;P2;durP2;ratioP2
21091;SDS011;10704;42.678;23.288;2023-09-07T00:00:43;14.32;;;8.25;;
21091;SDS011;10704;42.678;23.288;2023-09-07T00:03:09;13.07;;;8.15;;
21091;SDS011;10704;42.678;23.288;2023-09-07T00:05:35;13.02;;;7.72;;
21091;SDS011;10704;42.678;23.288;2023-09-07T00:08:01;16.77;;;9.10;;
21091;SDS011;10704;42.678;23.288;2023-09-07T00:10:27;12.55;;;8.20;;
21091;SDS011;10704;42.678;23.288;2023-09-07T00:12:52;12.30;;;8.68;;
21091;SDS011;10704;42.678;23.288;2023-09-07T00:15:18;11.85;;;8.90;;
21091;SDS011;10704;42.678;23.288;2023-09-07T00:17:46;12.55;;;8.20;;
21091;SDS011;10704;42.678;23.288;2023-09-07T00:20:12;14.10;;;9.55;;
21091;SDS011;10704;42.678;23.288;2023-09-07T00:22:41;13.10;;;9.27;;
21091;SDS011;10704;42.678;23.288;2023-09-07T00:25:08;11.60;;;9.07;;
21091;SDS011;10704;42.678;23.288;2023-09-07T00:27:34;12.45;;;9.10;;
21091;SDS011;10704;42.678;23.288;2023-09-07T00:30:00;14.55;;;9.25;;
21091;SDS011;10704;42.678;23.288;2023-09-07T00:32:31;14.88;;;8.77;;
21091;SDS011;10704;42.678;23.288;2023-09-07T00:34:58;13.80;;;9.50;;
21091;SDS011;10704;42.678;23.288;2023-09-07T00:37:24;12.48;;;9.68;;
21091;SDS011;10704;42.678;23.288;2023-09-07T00:39:50;15.32;;;11.05;;
21091;SDS011;10704;42.678;23.288;2023-09-07T00:42:17;13.18;;;9.00;;
21091;SDS011;10704;42.678;23.288;2023-09-07T00:44:43;16.92;;;9.55;;
21091;SDS011;10704;42.678;23.288;2023-09-07T00:47:09;16.00;;;10.27;;
21091;SDS011;10704;42.678;23.288;2023-09-07T00:49:36;14.35;;;10.15;;
21091;SDS011;10704;42.678;23.288;2023-09-07T00:52:04;14.98;;;10.73;;
21091;SDS011;10704;42.678;23.288;2023-09-07T00:54:31;13.50;;;10.27;;
21091;SDS011;10704;42.678;23.288;2023-09-07T00:56:57;16.00;;;9.25;;
21091;SDS011;10704;42.678;23.288;2023-09-07T00:59:23;14.45;;;10.35;;
21091;SDS011;10704;42.678;23.288;2023-09-07T01:01:49;16.35;;;11.52;;
21091;SDS011;10704;42.678;23.288;2023-09-07T01:04:15;14.70;;;10.60;;
21091;SDS011;10704;42.678;23.288;2023-09-07T01:06:47;15.95;;;11.30;;
21091;SDS011;10704;42.678;23.288;2023-09-07T01:09:22;17.42;;;12.50;;
21091;SDS011;10704;42.678;23.288;2023-09-07T01:11:50;17.88;;;12.85;;
21091;SDS011;10704;42.678;23.288;2023-09-07T01:14:18;16.85;;;12.77;;
21091;SDS011;10704;42.678;23.288;2023-09-07T01:16:44;20.33;;;12.52;;
21091;SDS011;10704;42.678;23.288;2023-09-07T01:19:10;19.35;;;12.27;;
21091;SDS011;10704;42.678;23.288;2023-09-07T01:21:37;17.88;;;12.65;;
21091;SDS011;10704;42.678;23.288;2023-09-07T01:24:04;15.55;;;12.63;;
21091;SDS011;10704;42.678;23.288;2023-09-07T01:26:37;18.27;;;12.85;;
21091;SDS011;10704;42.678;23.288;2023-09-07T01:29:05;18.05;;;13.27;;
21091;SDS011;10704;42.678;23.288;2023-09-07T01:31:38;17.38;;;13.05;;
21091;SDS011;10704;42.678;23.288;2023-09-07T01:34:07;16.45;;;12.50;;
21091;SDS011;10704;42.678;23.288;2023-09-07T01:36:34;17.83;;;12.88;;
21091;SDS011;10704;42.678;23.288;2023-09-07T01:39:01;19.65;;;12.52;;
21091;SDS011;10704;42.678;23.288;2023-09-07T01:41:28;16.08;;;12.75;;
21091;SDS011;10704;42.678;23.288;2023-09-07T01:43:55;15.73;;;12.15;;
21091;SDS011;10704;42.678;23.288;2023-09-07T01:46:21;17.02;;;13.18;;
21091;SDS011;10704;42.678;23.288;2023-09-07T01:48:47;17.27;;;12.85;;
21091;SDS011;10704;42.678;23.288;2023-09-07T01:51:13;17.65;;;12.57;;
21091;SDS011;10704;42.678;23.288;2023-09-07T01:53:41;17.95;;;13.48;;
21091;SDS011;10704;42.678;23.288;2023-09-07T01:56:07;15.35;;;11.88;;
21091;SDS011;10704;42.678;23.288;2023-09-07T01:58:34;16.38;;;12.65;;
21091;SDS011;10704;42.678;23.288;2023-09-07T02:01:00;18.92;;;13.05;;
21091;SDS011;10704;42.678;23.288;2023-09-07T02:03:26;18.80;;;12.55;;
21091;SDS011;10704;42.678;23.288;2023-09-07T02:05:52;18.50;;;13.27;;
21091;SDS011;10704;42.678;23.288;2023-09-07T02:08:19;14.73;;;11.85;;
21091;SDS011;10704;42.678;23.288;2023-09-07T02:10:45;17.88;;;12.63;;
21091;SDS011;10704;42.678;23.288;2023-09-07T02:13:11;17.13;;;12.43;;
21091;SDS011;10704;42.678;23.288;2023-09-07T02:15:40;22.45;;;13.05;;
21091;SDS011;10704;42.678;23.288;2023-09-07T02:18:06;21.27;;;13.02;;
21091;SDS011;10704;42.678;23.288;2023-09-07T02:20:32;18.65;;;13.23;;
21091;SDS011;10704;42.678;23.288;2023-09-07T02:22:58;16.60;;;13.35;;
21091;SDS011;10704;42.678;23.288;2023-09-07T02:25:25;18.40;;;13.48;;
21091;SDS011;10704;42.678;23.288;2023-09-07T02:27:50;21.17;;;14.65;;
21091;SDS011;10704;42.678;23.288;2023-09-07T02:30:16;20.20;;;14.93;;
21091;SDS011;10704;42.678;23.288;2023-09-07T02:32:42;21.02;;;14.30;;
21091;SDS011;10704;42.678;23.288;2023-09-07T02:35:08;21.80;;;14.98;;
21091;SDS011;10704;42.678;23.288;2023-09-07T02:37:36;18.55;;;14.50;;
21091;SDS011;10704;42.678;23.288;2023-09-07T02:40:02;19.33;;;14.60;;
21091;SDS011;10704;42.678;23.288;2023-09-07T02:42:33;21.77;;;14.52;;
21091;SDS011;10704;42.678;23.288;2023-09-07T02:44:59;17.85;;;14.57;;
21091;SDS011;10704;42.678;23.288;2023-09-07T02:47:25;20.27;;;14.23;;
21091;SDS011;10704;42.678;23.288;2023-09-07T02:49:52;21.35;;;14.85;;
21091;SDS011;10704;42.678;23.288;2023-09-07T02:52:17;22.00;;;14.75;;
21091;SDS011;10704;42.678;23.288;2023-09-07T02:54:43;20.65;;;15.38;;
21091;SDS011;10704;42.678;23.288;2023-09-07T02:57:10;17.95;;;14.32;;
21091;SDS011;10704;42.678;23.288;2023-09-07T02:59:36;19.38;;;14.57;;
21091;SDS011;10704;42.678;23.288;2023-09-07T03:02:02;20.02;;;14.80;;
21091;SDS011;10704;42.678;23.288;2023-09-07T03:04:28;21.60;;;15.73;;
21091;SDS011;10704;42.678;23.288;2023-09-07T03:06:54;18.95;;;14.55;;
21091;SDS011;10704;42.678;23.288;2023-09-07T03:09:20;18.65;;;14.82;;
21091;SDS011;10704;42.678;23.288;2023-09-07T03:11:46;19.55;;;15.23;;
21091;SDS011;10704;42.678;23.288;2023-09-07T03:17:22;22.17;;;15.88;;
21091;SDS011;10704;42.678;23.288;2023-09-07T03:19:48;23.25;;;16.80;;
21091;SDS011;10704;42.678;23.288;2023-09-07T03:22:14;21.23;;;16.40;;
21091;SDS011;10704;42.678;23.288;2023-09-07T03:24:41;21.60;;;16.75;;
21091;SDS011;10704;42.678;23.288;2023-09-07T03:27:07;26.10;;;17.75;;
21091;SDS011;10704;42.678;23.288;2023-09-07T03:29:33;24.73;;;17.67;;
21091;SDS011;10704;42.678;23.288;2023-09-07T03:32:02;23.95;;;18.13;;
21091;SDS011;10704;42.678;23.288;2023-09-07T03:34:28;26.95;;;18.52;;
21091;SDS011;10704;42.678;23.288;2023-09-07T03:36:55;26.38;;;18.20;;
21091;SDS011;10704;42.678;23.288;2023-09-07T03:39:20;26.80;;;18.80;;
21091;SDS011;10704;42.678;23.288;2023-09-07T03:41:49;26.15;;;17.70;;
21091;SDS011;10704;42.678;23.288;2023-09-07T03:44:15;26.90;;;18.65;;
21091;SDS011;10704;42.678;23.288;2023-09-07T03:46:41;24.70;;;19.38;;
21091;SDS011;10704;42.678;23.288;2023-09-07T03:49:07;24.08;;;18.15;;
21091;SDS011;10704;42.678;23.288;2023-09-07T03:51:33;30.77;;;18.27;;
21091;SDS011;10704;42.678;23.288;2023-09-07T03:53:59;25.35;;;19.17;;
21091;SDS011;10704;42.678;23.288;2023-09-07T03:56:25;22.92;;;17.38;;
21091;SDS011;10704;42.678;23.288;2023-09-07T03:58:51;23.48;;;17.77;;
21091;SDS011;10704;42.678;23.288;2023-09-07T04:01:17;27.58;;;18.77;;
21091;SDS011;10704;42.678;23.288;2023-09-07T04:03:43;25.02;;;18.95;;
21091;SDS011;10704;42.678;23.288;2023-09-07T04:06:10;28.50;;;19.60;;
21091;SDS011;10704;42.678;23.288;2023-09-07T04:08:36;27.85;;;20.45;;
21091;SDS011;10704;42.678;23.288;2023-09-07T04:11:03;24.63;;;17.88;;
21091;SDS011;10704;42.678;23.288;2023-09-07T04:13:32;27.35;;;18.48;;
21091;SDS011;10704;42.678;23.288;2023-09-07T04:15:58;25.45;;;19.40;;
21091;SDS011;10704;42.678;23.288;2023-09-07T04:18:25;27.65;;;19.20;;
21091;SDS011;10704;42.678;23.288;2023-09-07T04:20:51;25.75;;;19.00;;
21091;SDS011;10704;42.678;23.288;2023-09-07T04:23:17;24.42;;;18.48;;
21091;SDS011;10704;42.678;23.288;2023-09-07T04:25:45;28.00;;;20.02;;
21091;SDS011;10704;42.678;23.288;2023-09-07T04:28:12;26.33;;;18.40;;
21091;SDS011;10704;42.678;23.288;2023-09-07T04:30:39;25.40;;;19.52;;
21091;SDS011;10704;42.678;23.288;2023-09-07T04:33:07;27.80;;;20.10;;
21091;SDS011;10704;42.678;23.288;2023-09-07T04:35:34;27.85;;;19.15;;
21091;SDS011;10704;42.678;23.288;2023-09-07T04:38:00;25.70;;;19.33;;
21091;SDS011;10704;42.678;23.288;2023-09-07T04:40:26;27.75;;;19.52;;
21091;SDS011;10704;42.678;23.288;2023-09-07T04:42:52;25.88;;;18.52;;
21091;SDS011;10704;42.678;23.288;2023-09-07T04:45:18;25.42;;;19.00;;
21091;SDS011;10704;42.678;23.288;2023-09-07T04:47:44;27.27;;;18.60;;
21091;SDS011;10704;42.678;23.288;2023-09-07T04:50:10;27.48;;;18.73;;
21091;SDS011;10704;42.678;23.288;2023-09-07T04:52:36;26.80;;;19.13;;
21091;SDS011;10704;42.678;23.288;2023-09-07T04:55:02;25.83;;;18.67;;
21091;SDS011;10704;42.678;23.288;2023-09-07T04:57:48;26.02;;;18.48;;
21091;SDS011;10704;42.678;23.288;2023-09-07T05:00:14;24.80;;;18.42;;
21091;SDS011;10704;42.678;23.288;2023-09-07T05:02:45;29.17;;;17.92;;
21091;SDS011;10704;42.678;23.288;2023-09-07T05:05:12;24.23;;;16.02;;
21091;SDS011;10704;42.678;23.288;2023-09-07T05:07:38;24.27;;;18.02;;
21091;SDS011;10704;42.678;23.288;2023-09-07T05:10:05;23.45;;;17.48;;
21091;SDS011;10704;42.678;23.288;2023-09-07T05:12:34;27.58;;;17.45;;
21091;SDS011;10704;42.678;23.288;2023-09-07T05:14:59;26.10;;;17.23;;
21091;SDS011;10704;42.678;23.288;2023-09-07T05:17:26;21.25;;;17.10;;
21091;SDS011;10704;42.678;23.288;2023-09-07T05:19:52;25.30;;;18.08;;
21091;SDS011;10704;42.678;23.288;2023-09-07T05:25:51;28.67;;;17.73;;
21091;SDS011;10704;42.678;23.288;2023-09-07T05:28:21;24.30;;;17.33;;
21091;SDS011;10704;42.678;23.288;2023-09-07T05:30:49;23.63;;;16.42;;
21091;SDS011;10704;42.678;23.288;2023-09-07T05:33:16;28.55;;;18.48;;
21091;SDS011;10704;42.678;23.288;2023-09-07T05:35:44;24.67;;;17.75;;
21091;SDS011;10704;42.678;23.288;2023-09-07T05:38:15;27.58;;;18.63;;
21091;SDS011;10704;42.678;23.288;2023-09-07T05:40:43;27.10;;;17.88;;
21091;SDS011;10704;42.678;23.288;2023-09-07T05:43:10;24.38;;;17.60;;
21091;SDS011;10704;42.678;23.288;2023-09-07T05:45:38;24.30;;;17.60;;
21091;SDS011;10704;42.678;23.288;2023-09-07T05:48:06;23.17;;;17.27;;
21091;SDS011;10704;42.678;23.288;2023-09-07T05:50:34;21.25;;;16.17;;
21091;SDS011;10704;42.678;23.288;2023-09-07T05:53:01;23.95;;;15.77;;
21091;SDS011;10704;42.678;23.288;2023-09-07T05:55:27;22.08;;;15.48;;
21091;SDS011;10704;42.678;23.288;2023-09-07T05:57:54;20.83;;;15.35;;
21091;SDS011;10704;42.678;23.288;2023-09-07T06:00:21;21.13;;;15.70;;
21091;SDS011;10704;42.678;23.288;2023-09-07T06:02:48;19.80;;;14.63;;
21091;SDS011;10704;42.678;23.288;2023-09-07T06:05:15;20.88;;;14.95;;
21091;SDS011;10704;42.678;23.288;2023-09-07T06:07:41;17.85;;;13.82;;
21091;SDS011;10704;42.678;23.288;2023-09-07T06:10:08;21.73;;;13.90;;
21091;SDS011;10704;42.678;23.288;2023-09-07T06:12:34;20.20;;;13.90;;
21091;SDS011;10704;42.678;23.288;2023-09-07T06:15:01;21.20;;;13.93;;
21091;SDS011;10704;42.678;23.288;2023-09-07T06:17:28;23.00;;;14.43;;
21091;SDS011;10704;42.678;23.288;2023-09-07T06:19:55;18.52;;;13.07;;
21091;SDS011;10704;42.678;23.288;2023-09-07T06:22:22;17.13;;;12.27;;
21091;SDS011;10704;42.678;23.288;2023-09-07T06:24:49;20.90;;;12.52;;
21091;SDS011;10704;42.678;23.288;2023-09-07T06:27:15;15.52;;;11.52;;
21091;SDS011;10704;42.678;23.288;2023-09-07T06:29:41;17.35;;;11.85;;
21091;SDS011;10704;42.678;23.288;2023-09-07T06:32:07;20.58;;;13.05;;
21091;SDS011;10704;42.678;23.288;2023-09-07T06:34:33;22.88;;;13.13;;
21091;SDS011;10704;42.678;23.288;2023-09-07T06:36:59;21.75;;;12.43;;
21091;SDS011;10704;42.678;23.288;2023-09-07T06:39:26;15.90;;;11.07;;
21091;SDS011;10704;42.678;23.288;2023-09-07T06:41:52;19.00;;;11.85;;
21091;SDS011;10704;42.678;23.288;2023-09-07T06:44:20;14.05;;;11.02;;
21091;SDS011;10704;42.678;23.288;2023-09-07T06:46:47;16.48;;;10.77;;
21091;SDS011;10704;42.678;23.288;2023-09-07T06:49:16;17.00;;;9.82;;
21091;SDS011;10704;42.678;23.288;2023-09-07T06:51:42;16.45;;;10.13;;
21091;SDS011;10704;42.678;23.288;2023-09-07T06:54:07;15.10;;;9.30;;
21091;SDS011;10704;42.678;23.288;2023-09-07T06:56:34;17.80;;;9.95;;
21091;SDS011;10704;42.678;23.288;2023-09-07T06:59:00;16.08;;;9.80;;
21091;SDS011;10704;42.678;23.288;2023-09-07T07:01:26;17.90;;;10.02;;
21091;SDS011;10704;42.678;23.288;2023-09-07T07:03:52;12.73;;;9.32;;
21091;SDS011;10704;42.678;23.288;2023-09-07T07:06:19;11.20;;;8.63;;
21091;SDS011;10704;42.678;23.288;2023-09-07T07:08:46;12.20;;;8.75;;
21091;SDS011;10704;42.678;23.288;2023-09-07T07:11:12;14.00;;;9.30;;
21091;SDS011;10704;42.678;23.288;2023-09-07T07:13:37;14.23;;;9.57;;
21091;SDS011;10704;42.678;23.288;2023-09-07T07:16:04;11.98;;;8.75;;
21091;SDS011;10704;42.678;23.288;2023-09-07T07:18:31;12.75;;;8.48;;
21091;SDS011;10704;42.678;23.288;2023-09-07T07:20:57;14.23;;;9.20;;
21091;SDS011;10704;42.678;23.288;2023-09-07T07:23:25;12.90;;;7.80;;
21091;SDS011;10704;42.678;23.288;2023-09-07T07:25:52;10.73;;;8.25;;
21091;SDS011;10704;42.678;23.288;2023-09-07T07:28:18;13.02;;;9.20;;
21091;SDS011;10704;42.678;23.288;2023-09-07T07:30:44;12.82;;;9.07;;
21091;SDS011;10704;42.678;23.288;2023-09-07T07:33:10;11.52;;;8.07;;
21091;SDS011;10704;42.678;23.288;2023-09-07T07:35:39;13.02;;;7.80;;
21091;SDS011;10704;42.678;23.288;2023-09-07T07:38:05;13.52;;;8.68;;
21091;SDS011;10704;42.678;23.288;2023-09-07T07:40:36;12.43;;;7.55;;
21091;SDS011;10704;42.678;23.288;2023-09-07T07:43:03;12.90;;;8.07;;
21091;SDS011;10704;42.678;23.288;2023-09-07T07:45:29;12.88;;;8.27;;
21091;SDS011;10704;42.678;23.288;2023-09-07T07:47:56;13.77;;;9.02;;
21091;SDS011;10704;42.678;23.288;2023-09-07T07:50:22;11.18;;;8.15;;
21091;SDS011;10704;42.678;23.288;2023-09-07T07:52:49;10.60;;;8.80;;
21091;SDS011;10704;42.678;23.288;2023-09-07T07:55:15;14.25;;;8.52;;
21091;SDS011;10704;42.678;23.288;2023-09-07T07:57:41;13.10;;;9.90;;
21091;SDS011;10704;42.678;23.288;2023-09-07T08:00:09;11.85;;;8.70;;
21091;SDS011;10704;42.678;23.288;2023-09-07T08:02:49;15.13;;;10.25;;
21091;SDS011;10704;42.678;23.288;2023-09-07T08:05:15;14.82;;;9.13;;
21091;SDS011;10704;42.678;23.288;2023-09-07T08:07:42;11.10;;;7.10;;
21091;SDS011;10704;42.678;23.288;2023-09-07T08:10:08;12.60;;;7.47;;
21091;SDS011;10704;42.678;23.288;2023-09-07T08:12:34;11.45;;;7.30;;
21091;SDS011;10704;42.678;23.288;2023-09-07T08:15:00;11.15;;;7.28;;
21091;SDS011;10704;42.678;23.288;2023-09-07T08:17:26;11.40;;;8.30;;
21091;SDS011;10704;42.678;23.288;2023-09-07T08:19:52;12.43;;;7.57;;
21091;SDS011;10704;42.678;23.288;2023-09-07T08:22:24;15.13;;;7.68;;
21091;SDS011;10704;42.678;23.288;2023-09-07T08:24:53;12.13;;;7.07;;
21091;SDS011;10704;42.678;23.288;2023-09-07T08:27:19;11.02;;;7.53;;
21091;SDS011;10704;42.678;23.288;2023-09-07T08:29:51;12.13;;;8.07;;
21091;SDS011;10704;42.678;23.288;2023-09-07T08:32:18;12.25;;;7.25;;
21091;SDS011;10704;42.678;23.288;2023-09-07T08:34:45;12.15;;;7.13;;
21091;SDS011;10704;42.678;23.288;2023-09-07T08:37:10;10.38;;;7.15;;
21091;SDS011;10704;42.678;23.288;2023-09-07T08:39:36;11.68;;;6.63;;
21091;SDS011;10704;42.678;23.288;2023-09-07T08:42:04;8.88;;;7.07;;
21091;SDS011;10704;42.678;23.288;2023-09-07T08:44:30;8.90;;;6.25;;
21091;SDS011;10704;42.678;23.288;2023-09-07T08:46:59;13.93;;;7.85;;
21091;SDS011;10704;42.678;23.288;2023-09-07T08:49:26;10.20;;;7.70;;
21091;SDS011;10704;42.678;23.288;2023-09-07T08:51:52;12.80;;;7.05;;
21091;SDS011;10704;42.678;23.288;2023-09-07T08:54:19;11.30;;;7.53;;
21091;SDS011;10704;42.678;23.288;2023-09-07T08:56:47;10.90;;;6.82;;
21091;SDS011;10704;42.678;23.288;2023-09-07T08:59:14;10.73;;;7.55;;
21091;SDS011;10704;42.678;23.288;2023-09-07T09:01:40;9.25;;;7.15;;
21091;SDS011;10704;42.678;23.288;2023-09-07T09:04:06;9.23;;;6.90;;
21091;SDS011;10704;42.678;23.288;2023-09-07T09:06:33;12.23;;;6.40;;
21091;SDS011;10704;42.678;23.288;2023-09-07T09:08:59;9.73;;;6.50;;
21091;SDS011;10704;42.678;23.288;2023-09-07T09:11:25;8.82;;;7.35;;
21091;SDS011;10704;42.678;23.288;2023-09-07T09:13:53;9.93;;;6.22;;
21091;SDS011;10704;42.678;23.288;2023-09-07T09:16:20;7.80;;;5.97;;
21091;SDS011;10704;42.678;23.288;2023-09-07T09:18:49;10.50;;;6.90;;
21091;SDS011;10704;42.678;23.288;2023-09-07T09:21:20;10.10;;;7.43;;
21091;SDS011;10704;42.678;23.288;2023-09-07T09:23:51;13.27;;;6.35;;
21091;SDS011;10704;42.678;23.288;2023-09-07T09:26:18;11.70;;;6.38;;
21091;SDS011;10704;42.678;23.288;2023-09-07T09:28:45;10.00;;;6.20;;
21091;SDS011;10704;42.678;23.288;2023-09-07T09:31:11;8.48;;;6.25;;
21091;SDS011;10704;42.678;23.288;2023-09-07T09:33:41;10.55;;;6.15;;
21091;SDS011;10704;42.678;23.288;2023-09-07T09:36:08;13.25;;;6.53;;
21091;SDS011;10704;42.678;23.288;2023-09-07T09:38:34;9.60;;;6.22;;
21091;SDS011;10704;42.678;23.288;2023-09-07T09:41:01;11.25;;;6.57;;
21091;SDS011;10704;42.678;23.288;2023-09-07T09:43:30;8.73;;;6.20;;
21091;SDS011;10704;42.678;23.288;2023-09-07T09:45:56;8.70;;;6.07;;
21091;SDS011;10704;42.678;23.288;2023-09-07T09:48:25;9.70;;;5.70;;
21091;SDS011;10704;42.678;23.288;2023-09-07T09:50:53;10.00;;;5.72;;
21091;SDS011;10704;42.678;23.288;2023-09-07T09:53:19;12.95;;;6.47;;
21091;SDS011;10704;42.678;23.288;2023-09-07T09:55:46;9.95;;;5.95;;
21091;SDS011;10704;42.678;23.288;2023-09-07T09:58:14;9.68;;;5.55;;
21091;SDS011;10704;42.678;23.288;2023-09-07T10:00:43;10.40;;;6.10;;
21091;SDS011;10704;42.678;23.288;2023-09-07T10:03:23;8.65;;;6.40;;
21091;SDS011;10704;42.678;23.288;2023-09-07T10:06:20;10.23;;;6.82;;
21091;SDS011;10704;42.678;23.288;2023-09-07T10:11:32;9.10;;;6.20;;
21091;SDS011;10704;42.678;23.288;2023-09-07T10:14:00;12.25;;;6.40;;
21091;SDS011;10704;42.678;23.288;2023-09-07T10:19:23;9.68;;;5.75;;
21091;SDS011;10704;42.678;23.288;2023-09-07T10:22:29;10.88;;;6.25;;
21091;SDS011;10704;42.678;23.288;2023-09-07T10:25:01;9.93;;;6.55;;
21091;SDS011;10704;42.678;23.288;2023-09-07T10:27:38;8.85;;;5.65;;
21091;SDS011;10704;42.678;23.288;2023-09-07T10:30:10;10.30;;;6.07;;
21091;SDS011;10704;42.678;23.288;2023-09-07T10:32:44;8.18;;;6.10;;
21091;SDS011;10704;42.678;23.288;2023-09-07T10:35:14;11.13;;;6.63;;
21091;SDS011;10704;42.678;23.288;2023-09-07T10:37:43;11.35;;;6.22;;
21091;SDS011;10704;42.678;23.288;2023-09-07T10:40:20;9.48;;;6.47;;
21091;SDS011;10704;42.678;23.288;2023-09-07T10:42:48;11.18;;;6.50;;
21091;SDS011;10704;42.678;23.288;2023-09-07T10:45:14;8.95;;;5.85;;
21091;SDS011;10704;42.678;23.288;2023-09-07T10:47:45;7.95;;;5.35;;
21091;SDS011;10704;42.678;23.288;2023-09-07T10:50:12;10.20;;;6.13;;
21091;SDS011;10704;42.678;23.288;2023-09-07T10:52:39;10.25;;;6.00;;
21091;SDS011;10704;42.678;23.288;2023-09-07T10:55:06;6.97;;;5.50;;
21091;SDS011;10704;42.678;23.288;2023-09-07T10:57:45;14.05;;;7.07;;
21091;SDS011;10704;42.678;23.288;2023-09-07T11:00:12;10.23;;;5.28;;
21091;SDS011;10704;42.678;23.288;2023-09-07T11:02:39;8.05;;;5.47;;
21091;SDS011;10704;42.678;23.288;2023-09-07T11:05:06;10.27;;;5.63;;
21091;SDS011;10704;42.678;23.288;2023-09-07T11:07:33;11.18;;;6.07;;
21091;SDS011;10704;42.678;23.288;2023-09-07T11:09:59;9.45;;;6.35;;
21091;SDS011;10704;42.678;23.288;2023-09-07T11:12:25;8.77;;;6.43;;
21091;SDS011;10704;42.678;23.288;2023-09-07T11:14:51;10.68;;;6.32;;
21091;SDS011;10704;42.678;23.288;2023-09-07T11:17:19;10.65;;;6.10;;
21091;SDS011;10704;42.678;23.288;2023-09-07T11:19:53;10.48;;;5.53;;
21091;SDS011;10704;42.678;23.288;2023-09-07T11:22:20;8.88;;;5.15;;
21091;SDS011;10704;42.678;23.288;2023-09-07T11:24:47;7.05;;;4.88;;
21091;SDS011;10704;42.678;23.288;2023-09-07T11:27:16;7.50;;;4.95;;
21091;SDS011;10704;42.678;23.288;2023-09-07T11:29:49;8.30;;;4.88;;
21091;SDS011;10704;42.678;23.288;2023-09-07T11:32:16;9.85;;;5.97;;
21091;SDS011;10704;42.678;23.288;2023-09-07T11:34:50;6.95;;;5.05;;
21091;SDS011;10704;42.678;23.288;2023-09-07T11:37:17;8.88;;;5.32;;
21091;SDS011;10704;42.678;23.288;2023-09-07T11:39:48;10.63;;;4.97;;
21091;SDS011;10704;42.678;23.288;2023-09-07T11:42:14;8.93;;;4.80;;
21091;SDS011;10704;42.678;23.288;2023-09-07T11:44:40;7.45;;;4.60;;
21091;SDS011;10704;42.678;23.288;2023-09-07T11:47:06;6.55;;;4.57;;
21091;SDS011;10704;42.678;23.288;2023-09-07T11:49:32;11.07;;;5.38;;
21091;SDS011;10704;42.678;23.288;2023-09-07T11:51:58;10.55;;;6.93;;
21091;SDS011;10704;42.678;23.288;2023-09-07T11:54:24;9.80;;;5.85;;
21091;SDS011;10704;42.678;23.288;2023-09-07T11:56:50;7.22;;;5.05;;
21091;SDS011;10704;42.678;23.288;2023-09-07T11:59:16;6.93;;;5.35;;
21091;SDS011;10704;42.678;23.288;2023-09-07T12:01:43;8.63;;;4.63;;
21091;SDS011;10704;42.678;23.288;2023-09-07T12:04:09;7.85;;;5.03;;
21091;SDS011;10704;42.678;23.288;2023-09-07T12:06:35;10.57;;;4.70;;
21091;SDS011;10704;42.678;23.288;2023-09-07T12:09:05;8.50;;;5.10;;
21091;SDS011;10704;42.678;23.288;2023-09-07T12:11:32;8.45;;;4.68;;
21091;SDS011;10704;42.678;23.288;2023-09-07T12:13:58;8.77;;;5.32;;
21091;SDS011;10704;42.678;23.288;2023-09-07T12:16:27;10.30;;;5.40;;
21091;SDS011;10704;42.678;23.288;2023-09-07T12:18:54;8.95;;;5.07;;
21091;SDS011;10704;42.678;23.288;2023-09-07T12:21:20;12.82;;;6.07;;
21091;SDS011;10704;42.678;23.288;2023-09-07T12:23:46;10.48;;;5.20;;
21091;SDS011;10704;42.678;23.288;2023-09-07T12:26:12;9.02;;;5.13;;
21091;SDS011;10704;42.678;23.288;2023-09-07T12:28:39;7.50;;;5.03;;
21091;SDS011;10704;42.678;23.288;2023-09-07T12:31:05;9.40;;;4.90;;
21091;SDS011;10704;42.678;23.288;2023-09-07T12:33:31;7.97;;;4.53;;
21091;SDS011;10704;42.678;23.288;2023-09-07T12:35:58;8.38;;;4.88;;
21091;SDS011;10704;42.678;23.288;2023-09-07T12:38:27;10.98;;;7.75;;
21091;SDS011;10704;42.678;23.288;2023-09-07T12:40:55;9.30;;;4.65;;
21091;SDS011;10704;42.678;23.288;2023-09-07T12:43:21;6.93;;;4.80;;
21091;SDS011;10704;42.678;23.288;2023-09-07T12:45:50;9.00;;;5.30;;
21091;SDS011;10704;42.678;23.288;2023-09-07T12:48:15;9.13;;;5.43;;
21091;SDS011;10704;42.678;23.288;2023-09-07T12:50:41;8.02;;;4.60;;
21091;SDS011;10704;42.678;23.288;2023-09-07T12:53:08;7.68;;;4.30;;
21091;SDS011;10704;42.678;23.288;2023-09-07T12:55:34;9.50;;;4.40;;
21091;SDS011;10704;42.678;23.288;2023-09-07T12:58:00;12.40;;;4.40;;
21091;SDS011;10704;42.678;23.288;2023-09-07T13:00:26;7.65;;;4.63;;
21091;SDS011;10704;42.678;23.288;2023-09-07T13:02:54;8.73;;;4.65;;
21091;SDS011;10704;42.678;23.288;2023-09-07T13:05:21;6.90;;;4.63;;
21091;SDS011;10704;42.678;23.288;2023-09-07T13:08:04;10.75;;;4.43;;
21091;SDS011;10704;42.678;23.288;2023-09-07T13:10:32;7.15;;;4.47;;
21091;SDS011;10704;42.678;23.288;2023-09-07T13:12:58;12.77;;;7.70;;
21091;SDS011;10704;42.678;23.288;2023-09-07T13:15:23;9.07;;;4.50;;
21091;SDS011;10704;42.678;23.288;2023-09-07T13:17:49;7.40;;;4.25;;
21091;SDS011;10704;42.678;23.288;2023-09-07T13:20:15;5.57;;;3.88;;
21091;SDS011;10704;42.678;23.288;2023-09-07T13:22:42;11.23;;;5.05;;
21091;SDS011;10704;42.678;23.288;2023-09-07T13:25:08;9.40;;;4.63;;
21091;SDS011;10704;42.678;23.288;2023-09-07T13:27:34;9.23;;;4.65;;
21091;SDS011;10704;42.678;23.288;2023-09-07T13:30:00;7.07;;;4.60;;
21091;SDS011;10704;42.678;23.288;2023-09-07T13:32:32;10.75;;;4.55;;
21091;SDS011;10704;42.678;23.288;2023-09-07T13:34:58;6.07;;;4.57;;
21091;SDS011;10704;42.678;23.288;2023-09-07T13:37:24;7.53;;;4.47;;
21091;SDS011;10704;42.678;23.288;2023-09-07T13:39:49;8.68;;;5.53;;
21091;SDS011;10704;42.678;23.288;2023-09-07T13:42:15;8.60;;;5.28;;
21091;SDS011;10704;42.678;23.288;2023-09-07T13:44:41;10.05;;;4.38;;
21091;SDS011;10704;42.678;23.288;2023-09-07T13:47:07;8.63;;;4.50;;
21091;SDS011;10704;42.678;23.288;2023-09-07T13:49:36;8.40;;;4.60;;
21091;SDS011;10704;42.678;23.288;2023-09-07T13:52:01;8.55;;;4.97;;
21091;SDS011;10704;42.678;23.288;2023-09-07T13:54:28;6.07;;;4.00;;
21091;SDS011;10704;42.678;23.288;2023-09-07T13:56:54;10.88;;;4.32;;
21091;SDS011;10704;42.678;23.288;2023-09-07T13:59:20;8.65;;;5.15;;
21091;SDS011;10704;42.678;23.288;2023-09-07T14:01:46;7.88;;;4.40;;
21091;SDS011;10704;42.678;23.288;2023-09-07T14:04:11;11.27;;;4.90;;
21091;SDS011;10704;42.678;23.288;2023-09-07T14:06:37;10.35;;;4.63;;
21091;SDS011;10704;42.678;23.288;2023-09-07T14:09:03;9.40;;;5.47;;
21091;SDS011;10704;42.678;23.288;2023-09-07T14:11:32;8.23;;;4.82;;
21091;SDS011;10704;42.678;23.288;2023-09-07T14:13:58;9.63;;;5.30;;
21091;SDS011;10704;42.678;23.288;2023-09-07T14:16:24;6.03;;;4.47;;
21091;SDS011;10704;42.678;23.288;2023-09-07T14:18:51;8.73;;;5.00;;
21091;SDS011;10704;42.678;23.288;2023-09-07T14:21:17;10.40;;;4.70;;
21091;SDS011;10704;42.678;23.288;2023-09-07T14:23:44;10.68;;;5.60;;
21091;SDS011;10704;42.678;23.288;2023-09-07T14:26:10;12.18;;;7.60;;
21091;SDS011;10704;42.678;23.288;2023-09-07T14:28:36;8.15;;;5.68;;
21091;SDS011;10704;42.678;23.288;2023-09-07T14:31:03;7.97;;;4.53;;